• Join FlightAware (Why Join?)
  • Login
  • US Flag 
08:09AM EDT


 

Airport Tracker/Info


-or-


 

Live Flight TrackerFlight Track Log ✈ EJA922 ✈ 10-Oct-2013 ✈ KSJC - KRNO

Flight Track Log - Related Links

Times and Time Zones

All times are in EDT time to prevent confusion due to time zone crossing. See the EJA922 flight status page for this flight to view local times or setup timezone preferences in your user account.

Time Position Orientation Groundspeed Altitude Reporting Facility
EDT Latitude Longitude Course Direction KTS MPH feet Rate Location/Type
12:29PM 37.3500 -121.9000 152° Southeast 186 214 2,300  Level Northern Cal TRACON
12:30PM 37.3000 -121.8667 152° Southeast 228 262 7,200 4,260 Climbing Northern Cal TRACON
12:31PM 37.2489 -121.8531 168° South 262 302 10,400 2,700 Climbing Oakland Center
12:32PM 37.2514 -121.9433 272° West 307 353 12,600 2,220 Climbing Oakland Center
12:33PM 37.3433 -121.9517 356° North 338 389 15,000 1,320 Climbing Oakland Center
12:34PM 37.4689 -121.9569 358° North 381 438 15,400 660 Climbing Oakland Center
12:35PM 37.5769 -121.9686 355° North 389 448 16,400 780 Climbing Oakland Center
12:36PM 37.6847 -121.9628 North 396 456 17,000 240 Climbing Oakland Center
12:37PM 37.8000 -121.9500 North 413 475 17,000  Level Northern Cal TRACON
12:38PM 37.9000 -121.8500 38° Northeast 425 489 17,000  Level Northern Cal TRACON
12:39PM 37.9500 -121.7333 61° Northeast 429 494 17,000  Level Northern Cal TRACON
12:40PM 38.0167 -121.6000 58° Northeast 431 496 17,000  Level Northern Cal TRACON
12:41PM 38.0667 -121.4667 64° Northeast 440 506 17,000  Level Northern Cal TRACON
12:42PM 38.1333 -121.3333 58° Northeast 441 507 17,000  Level Northern Cal TRACON
12:43PM 38.1833 -121.2000 64° Northeast 432 497 17,000  Level Northern Cal TRACON
12:44PM 38.2500 -121.0667 57° Northeast 426 490 17,000  Level Northern Cal TRACON
12:45PM 38.3106 -120.9272 61° Northeast 425 489 17,000  Level Oakland Center
12:46PM 38.3792 -120.7711 61° Northeast 424 488 17,000  Level Oakland Center
12:47PM 38.4361 -120.6417 61° Northeast 423 487 17,000  Level Oakland Center
12:48PM 38.4925 -120.5128 61° Northeast 421 484 17,000  Level Oakland Center
12:49PM 38.5489 -120.3819 61° Northeast 421 484 17,000  Level Oakland Center
12:50PM 38.6064 -120.2508 61° Northeast 424 488 17,000  Level Oakland Center
12:51PM 38.6633 -120.1186 61° Northeast 425 489 17,000 -660 Level Oakland Center
12:52PM 38.7228 -119.9861 60° Northeast 428 493 15,700 -1,440 Descending Oakland Center
12:53PM 38.7783 -119.8572 61° Northeast 417 480 14,100 -840 Descending Oakland Center
12:54PM 38.8731 -119.7708 35° Northeast 377 434 14,000 -180 Descending Oakland Center
12:55PM 38.9814 -119.7711 360° North 382 440 13,800 -960 Descending Oakland Center
12:56PM 39.0858 -119.7714 360° North 379 436 12,100 -1,680 Descending Oakland Center
12:57PM 39.1811 -119.7714 360° North 366 421 10,400 -1,620 Descending Oakland Center
12:58PM 39.2625 -119.7714 360° North 333 383 8,800 -1,500 Descending Oakland Center
01:01PM 39.4167 -119.7667 North 222 255 5,800 -1,320 Descending Northern Cal TRACON
01:02PM 39.4667 -119.7667 360° North 160 184 4,800 -1,020 Descending Northern Cal TRACON
01:04PM 39.4833 -119.7667 North  Level FlightAware Approximate
01:11PM 39.4991 -119.7681 North  Level Estimated